Latest Weather Observations for Narrandera Airport

IDN60801

Issued at 11:04 am EDT Monday 26 January 2015 (issued every 30 minutes, with the page automatically refreshed every 10 minutes)

About weather observations | Map of weather stations | Latest weather observations for NSW | Other Formats
Station Details ID: 074148 Name: NARRANDERA AIRPORT AWS Lat: -34.70 Lon: 146.51 Height: 145.0 m
Data from the previous 72 hours. | See also: Recent months for locations in New South Wales
Date/Time
EDT
Temp
°C
App
Temp
°C
Dew
Point
Rel
Hum
%
Delta-T
°C
Wind Press
QNH
hPa
Press
MSL
hPa
Rain
since 9 am
mm
Dir
 
Spd
km/h
Gust
km/h
Spd
kts
Gust
kts
26/11:00am 22.2 18.2 2.8 28 9.3 SSW 13 24 7 13 1013.9 1013.1 0.0
26/10:30am 21.5 17.0 4.1 32 8.5 S 17 30 9 16 1014.1 1013.3 0.0
26/10:00am 20.4 16.4 4.8 36 7.7 S 15 22 8 12 1014.1 1013.3 0.0
26/09:30am 18.9 15.2 4.3 38 7.0 SSW 13 20 7 11 1014.3 1013.5 0.0
26/09:00am 18.0 13.8 5.6 44 6.1 SSW 17 22 9 12 1014.3 1013.5 0.0
26/08:30am 16.5 12.3 5.8 49 5.2 SSW 17 20 9 11 1014.0 1013.2 0.0
26/08:00am 14.9 10.8 6.0 55 4.3 SSW 17 24 9 13 1013.8 1013.0 0.0
26/07:30am 13.7 10.3 6.1 60 3.6 SSW 13 17 7 9 1013.6 1012.8 0.0
26/07:00am 12.6 9.6 6.2 65 3.1 SSW 11 13 6 7 1013.3 1012.5 0.0
26/06:30am 11.2 9.0 6.1 71 2.4 SW 7 11 4 6 1012.8 1011.9 0.0
26/06:00am 11.3 10.3 5.6 68 2.7 CALM 0 0 0 0 1012.6 1011.8 0.0
26/05:30am 12.6 11.2 5.5 62 3.3 SW 2 7 1 4 1012.1 1011.3 0.0
26/05:00am 12.5 11.4 5.2 61 3.4 CALM 0 0 0 0 1011.9 1011.1 0.0
26/04:30am 13.1 10.7 5.3 59 3.7 SSW 7 9 4 5 1011.5 1010.7 0.0
26/04:00am 13.4 10.7 5.6 59 3.7 SSW 9 13 5 7 1011.4 1010.6 0.0
26/03:30am 14.3 11.4 4.9 53 4.4 SW 9 13 5 7 1011.2 1010.4 0.0
26/03:00am 14.4 11.8 4.4 51 4.7 SSW 7 9 4 5 1011.0 1010.2 0.0
26/02:30am 14.4 11.5 4.4 51 4.7 SSW 9 11 5 6 1010.9 1010.1 0.0
26/02:00am 16.0 12.8 3.1 42 5.9 SW 9 13 5 7 1010.9 1010.1 0.0
26/01:30am 16.8 12.4 2.8 39 6.4 SW 15 17 8 9 1010.8 1010.0 0.0
26/01:00am 17.5 13.9 2.7 37 6.8 SW 11 17 6 9 1010.6 1009.8 0.0
26/12:30am 18.0 14.6 1.9 34 7.3 SW 9 15 5 8 1010.6 1009.8 0.0
26/12:00am 18.6 14.8 1.6 32 7.7 WSW 11 15 6 8 1010.7 1009.9 0.0
 
Date/Time
EDT
Temp
°C
App
Temp
°C
Dew
Point
Rel
Hum
%
Delta-T
°C
Wind Press
QNH
hPa
Press
MSL
hPa
Rain
since 9 am
mm
Dir
 
Spd
km/h
Gust
km/h
Spd
kts
Gust
kts
25/11:30pm 19.4 15.2 1.9 31 8.1 WSW 13 19 7 10 1010.6 1009.8 0.0
25/11:00pm 20.2 16.0 1.6 29 8.6 WSW 13 19 7 10 1010.6 1009.8 0.0
25/10:30pm 20.4 16.2 1.8 29 8.6 WSW 13 17 7 9 1010.4 1009.6 0.0
25/10:00pm 20.4 16.5 1.3 28 8.8 W 11 13 6 7 1010.1 1009.3 0.0
25/09:30pm 21.1 18.0 1.4 27 9.1 WSW 7 11 4 6 1009.8 1009.0 0.0
25/08:30pm 23.4 18.9 -0.1 21 10.7 WSW 13 20 7 11 1009.0 1008.2 0.0
25/08:00pm 24.6 19.8 0.2 20 11.3 WSW 15 24 8 13 1008.8 1008.0 0.0
25/07:30pm 25.5 19.9 0.9 20 11.6 WSW 20 35 11 19 1008.5 1007.7 0.0
25/07:00pm 26.0 20.0 1.3 20 11.8 WSW 22 32 12 17 1008.1 1007.3 0.0
25/06:30pm 26.8 21.2 3.3 22 11.7 SW 22 32 12 17 1007.7 1006.9 0.0
25/05:30pm 27.5 21.4 2.6 20 12.3 W 24 33 13 18 1007.3 1006.5 0.0
25/05:00pm 27.8 21.3 2.8 20 12.5 WSW 26 35 14 19 1007.0 1006.2 0.0
25/04:30pm 28.1 22.5 3.7 21 12.3 WSW 22 37 12 20 1007.0 1006.2 0.0
25/04:00pm 27.7 21.1 4.1 22 12.0 WSW 28 43 15 23 1007.1 1006.3 0.0
25/03:30pm 27.8 21.3 4.8 23 11.8 W 28 41 15 22 1007.1 1006.3 0.0
25/03:00pm 27.6 22.2 6.4 26 11.2 W 24 37 13 20 1007.2 1006.4 0.0
25/02:30pm 27.1 21.8 7.0 28 10.7 W 24 35 13 19 1007.3 1006.5 0.0
25/02:00pm 26.7 22.1 8.2 31 10.1 W 22 35 12 19 1007.4 1006.6 0.0
25/01:30pm 26.0 21.1 8.5 33 9.5 WSW 24 37 13 20 1007.6 1006.8 0.0
25/01:00pm 25.5 20.5 9.7 37 8.8 WSW 26 37 14 20 1007.7 1006.9 0.0
25/12:30pm 25.3 20.9 10.4 39 8.3 W 24 33 13 18 1007.7 1006.9 0.0
25/12:00pm 24.5 20.9 10.4 41 7.9 WSW 20 32 11 17 1007.8 1007.0 0.0
25/11:30am 24.1 20.2 10.7 43 7.5 WSW 22 32 12 17 1007.9 1007.1 0.0
25/11:00am 23.4 19.7 10.1 43 7.3 WSW 20 32 11 17 1007.9 1007.1 0.0
25/10:30am 22.6 18.4 9.7 44 7.0 WSW 22 33 12 18 1007.8 1007.0 0.0
25/10:00am 22.0 18.1 9.5 45 6.8 SW 20 32 11 17 1007.9 1007.1 0.0
25/09:30am 21.5 16.8 9.4 46 6.5 SW 24 35 13 19 1008.0 1007.2 0.0
25/09:00am 21.0 16.8 9.9 49 6.0 SW 22 35 12 19 1008.1 1007.3 3.8
25/08:30am 20.4 15.8 9.6 50 5.8 SW 24 37 13 20 1007.8 1007.0 3.8
25/08:00am 19.8 16.0 9.1 50 5.7 SW 19 30 10 16 1007.3 1006.5 3.8
25/07:30am 19.1 16.9 9.3 53 5.2 SW 11 17 6 9 1007.0 1006.2 3.8
25/07:00am 18.7 16.0 8.9 53 5.2 WSW 13 19 7 10 1006.4 1005.5 3.8
25/06:30am 18.6 15.9 8.8 53 5.1 SW 13 20 7 11 1006.1 1005.2 3.8
25/06:00am 19.2 15.6 8.2 49 5.7 SW 17 24 9 13 1005.4 1004.5 3.8
25/05:30am 19.7 15.8 8.7 49 5.8 WSW 19 32 10 17 1004.9 1004.1 3.8
25/05:00am 20.1 16.6 8.8 48 6.0 SW 17 26 9 14 1004.8 1004.0 3.8
25/04:30am 21.0 17.5 8.6 45 6.6 WSW 17 24 9 13 1004.5 1003.7 3.8
25/04:00am 19.9 20.0 16.5 81 2.1 NW 11 15 6 8 1004.1 1003.3 3.8
25/03:30am 20.8 21.4 17.6 82 2.0 NW 11 13 6 7 1003.6 1002.8 3.8
25/03:00am 22.2 23.2 17.8 76 2.8 WNW 9 11 5 6 1003.7 1002.9 3.8
25/02:30am 22.4 23.7 18.4 78 2.5 NW 9 11 5 6 1003.7 1002.9 3.8
25/02:00am 22.4 23.1 18.0 76 2.8 N 11 15 6 8 1003.8 1003.0 3.8
25/01:30am 23.2 22.8 17.2 69 3.7 W 15 28 8 15 1003.8 1003.0 3.8
25/01:00am 21.9 22.7 17.3 75 2.9 NNE 9 19 5 10 1003.6 1002.8 3.8
25/12:30am 23.2 23.7 18.3 74 3.1 N 13 26 7 14 1004.2 1003.4 3.4
25/12:00am 22.7 24.2 18.0 75 3.0 NE 7 11 4 6 1003.6 1002.8 3.4
 
Date/Time
EDT
Temp
°C
App
Temp
°C
Dew
Point
Rel
Hum
%
Delta-T
°C
Wind Press
QNH
hPa
Press
MSL
hPa
Rain
since 9 am
mm
Dir
 
Spd
km/h
Gust
km/h
Spd
kts
Gust
kts
24/11:30pm 22.9 26.0 18.7 77 2.7 CALM 0 0 0 0 1003.7 1002.9 3.4
24/11:00pm 22.6 24.3 18.4 77 2.7 NE 7 9 4 5 1004.0 1003.2 3.4
24/10:30pm 22.8 24.4 19.2 80 2.3 NE 9 13 5 7 1004.1 1003.3 3.4
24/10:00pm 23.1 26.4 19.1 78 2.6 CALM 0 0 0 0 1004.1 1003.3 3.4
24/09:30pm 23.3 24.8 19.0 77 2.7 NNE 9 11 5 6 1003.9 1003.1 3.4
24/09:00pm 24.3 27.0 19.4 74 3.2 NNE 4 7 2 4 1003.7 1002.9 3.4
24/08:30pm 25.4 27.1 18.6 66 4.3 NNE 7 9 4 5 1003.4 1002.6 3.4
24/08:00pm 27.2 27.9 17.9 56 5.9 NNW 11 13 6 7 1003.3 1002.5 3.4
24/07:30pm 27.7 28.8 18.1 56 6.1 NW 9 11 5 6 1003.3 1002.5 3.4
24/07:00pm 27.4 29.1 18.4 58 5.8 NW 7 11 4 6 1003.0 1002.2 3.4
24/06:30pm 27.9 29.4 18.9 58 5.8 WNW 9 13 5 7 1002.7 1001.9 3.4
24/06:00pm 28.0 30.7 18.7 57 6.0 N 2 9 1 5 1003.1 1002.3 3.4
24/05:30pm 26.8 29.6 18.9 62 5.1 NE 2 7 1 4 1003.0 1002.2 3.4
24/05:00pm 26.2 29.1 19.8 68 4.2 N 4 9 2 5 1003.3 1002.5 3.4
24/04:30pm 25.3 27.9 20.1 73 3.4 ESE 6 7 3 4 1003.5 1002.7 3.4
24/04:00pm 24.7 27.2 21.0 80 2.5 S 9 11 5 6 1003.5 1002.7 3.4
24/03:30pm 23.8 26.9 20.3 81 2.3 S 4 9 2 5 1004.5 1003.7 3.4
24/03:00pm 22.7 25.6 19.9 84 1.8 N 4 9 2 5 1005.3 1004.4 3.2
24/02:30pm 22.5 22.3 19.3 82 2.0 N 19 26 10 14 1006.4 1005.5 1.8
24/02:00pm 24.3 25.5 19.8 76 2.9 NE 13 17 7 9 1006.2 1005.3 0.6
24/01:30pm 27.9 30.6 17.7 53 6.5 CALM 0 7 0 4 1006.2 1005.3 0.0
24/01:00pm 27.9 30.2 17.7 53 6.5 NNW 2 7 1 4 1006.1 1005.2 0.0
24/12:30pm 27.2 29.0 18.8 60 5.4 SW 7 11 4 6 1006.0 1005.1 0.0
24/12:00pm 27.9 30.7 18.9 58 5.8 W 2 7 1 4 1006.1 1005.2 0.0
24/11:30am 27.6 28.5 18.3 57 6.0 NW 11 17 6 9 1006.3 1005.4 0.0
24/11:00am 28.4 29.1 18.8 56 6.2 NW 13 15 7 8 1006.2 1005.3 0.0
24/10:30am 28.3 29.6 18.4 55 6.4 WNW 9 11 5 6 1006.2 1005.3 0.0
24/10:00am 28.3 29.2 19.2 57 5.9 NW 13 19 7 10 1006.1 1005.2 0.0
24/09:30am 27.7 29.3 20.0 63 5.1 W 11 13 6 7 1006.1 1005.2 0.0
24/09:00am 27.4 30.4 20.0 64 4.9 WSW 4 9 2 5 1005.9 1005.0 2.2
24/08:30am 26.0 30.3 21.2 75 3.2 CALM 0 0 0 0 1005.7 1004.8 2.2
24/08:00am 24.6 28.4 20.1 76 2.9 CALM 0 4 0 2 1005.5 1004.6 2.2
24/07:30am 23.7 27.3 19.8 79 2.5 CALM 0 0 0 0 1005.0 1004.2 2.2
24/07:00am 23.3 27.2 20.4 84 1.9 CALM 0 0 0 0 1004.9 1004.1 2.2
24/06:30am 22.5 24.8 19.5 83 1.9 ESE 6 9 3 5 1004.5 1003.7 2.2
24/06:00am 23.8 26.5 18.7 73 3.3 NW 2 6 1 3 1004.6 1003.8 2.2
24/05:30am 24.1 27.2 18.7 72 3.4 CALM 0 9 0 5 1004.6 1003.8 2.2
24/05:00am 24.3 26.1 18.2 68 3.9 N 6 11 3 6 1004.4 1003.6 2.2
24/04:30am 25.4 27.0 18.3 65 4.5 N 7 9 4 5 1004.2 1003.4 2.2
24/04:00am 25.5 27.9 18.7 66 4.4 N 4 13 2 7 1004.4 1003.6 2.2
24/03:30am 24.1 26.6 20.2 79 2.5 ENE 7 11 4 6 1004.5 1003.7 2.2
24/03:00am 24.2 28.1 20.3 79 2.6 CALM 0 0 0 0 1004.2 1003.4 2.2
24/02:30am 25.1 28.8 19.9 73 3.4 CALM 0 0 0 0 1004.4 1003.6 2.2
24/02:00am 25.3 27.9 18.5 66 4.4 WSW 2 7 1 4 1004.7 1003.9 2.2
24/01:30am 25.5 28.5 19.2 68 4.1 SSW 2 9 1 5 1005.0 1004.2 2.2
24/01:00am 26.0 28.6 19.2 66 4.4 NNE 4 9 2 5 1005.4 1004.5 2.2
24/12:30am 26.3 28.0 18.4 61 5.0 NE 7 13 4 7 1005.6 1004.7 2.2
24/12:00am 25.5 27.1 19.2 68 4.1 NE 9 13 5 7 1005.7 1004.8 2.2
 
Date/Time
EDT
Temp
°C
App
Temp
°C
Dew
Point
Rel
Hum
%
Delta-T
°C
Wind Press
QNH
hPa
Press
MSL
hPa
Rain
since 9 am
mm
Dir
 
Spd
km/h
Gust
km/h
Spd
kts
Gust
kts
23/11:30pm 25.8 27.7 19.7 69 4.0 NE 9 11 5 6 1005.9 1005.0 2.2
23/11:00pm 25.8 26.4 19.4 67 4.2 NE 15 19 8 10 1005.9 1005.0 2.2
23/10:30pm 25.7 25.6 19.6 69 4.0 NE 19 22 10 12 1006.1 1005.2 2.2
23/10:00pm 25.4 27.3 20.6 75 3.2 NE 11 13 6 7 1005.9 1005.0 2.2
23/09:30pm 25.3 26.9 19.9 72 3.5 E 11 15 6 8 1005.8 1004.9 2.2
23/09:00pm 26.1 29.0 20.7 72 3.6 NNW 6 9 3 5 1005.0 1004.2 2.2
23/08:30pm 25.9 26.9 18.6 64 4.7 WSW 11 17 6 9 1004.8 1004.0 2.0
23/08:00pm 27.1 27.4 18.7 60 5.4 E 15 22 8 12 1003.8 1003.0 1.2
23/07:30pm 26.6 27.9 18.5 61 5.2 ENE 9 17 5 9 1003.8 1003.0 1.2
23/07:00pm 26.3 26.3 18.9 63 4.8 S 17 32 9 17 1003.9 1003.1 0.8
23/06:30pm 25.1 21.7 19.0 69 3.9 S 35 52 19 28 1003.5 1002.7 0.8
23/06:20pm 28.5 24.5 16.7 48 7.4 SW 33 56 18 30 1003.6 1002.8 0.0
23/06:14pm 33.7 31.4 14.2 30 12.0 WNW 19 46 10 25 1003.1 1002.3 0.0
23/06:00pm 35.8 34.2 12.7 25 14.1 NNW 13 26 7 14 1002.1 1001.3 0.0
23/05:30pm 36.8 35.2 12.9 24 14.6 NW 13 22 7 12 1002.3 1001.5 0.0
23/05:00pm 37.0 34.9 12.4 23 15.0 N 15 28 8 15 1002.5 1001.7 0.0
23/04:40pm 37.2 35.5 12.6 23 15.0 NNW 13 32 7 17 1002.6 1001.8 0.0
23/04:30pm 36.0 34.8 11.6 23 14.6 NW 9 20 5 11 1002.8 1002.0 0.0
23/04:00pm 36.9 35.4 13.0 24 14.7 NW 13 28 7 15 1003.3 1002.5 0.0
23/03:30pm 37.1 35.0 12.5 23 15.0 NNW 15 24 8 13 1003.9 1003.1 0.0
23/03:00pm 36.4 34.9 13.2 25 14.3 NNW 13 20 7 11 1004.3 1003.5 0.0
23/02:30pm 36.2 34.7 14.2 26 13.7 NNW 15 24 8 13 1004.7 1003.9 0.0
23/02:00pm 35.9 35.1 15.1 29 13.1 NW 13 24 7 13 1005.1 1004.3 0.0
23/01:30pm 35.3 33.6 14.6 29 12.9 N 17 22 9 12 1005.7 1004.8 0.0
23/01:00pm 33.8 32.7 15.3 33 11.6 NNW 15 24 8 13 1006.4 1005.5 0.0
23/12:30pm 33.2 32.2 15.7 35 11.0 NNW 15 24 8 13 1007.0 1006.2 0.0
23/12:00pm 32.3 31.0 15.7 36 10.4 NNW 17 26 9 14 1007.6 1006.8 0.0
23/11:30am 30.5 30.2 16.5 43 8.8 N 13 19 7 10 1008.0 1007.2 0.0

Other Formats:

Comma delimited format used in spreadsheet applications
http://www.bom.gov.au/fwo/IDN60801/IDN60801.95706.axf

JavaScript Object Notation format (JSON) in row-major order
http://www.bom.gov.au/fwo/IDN60801/IDN60801.95706.json